createdAt,value
2024-03-29T00:00:25.621Z,9.2
2024-03-29T00:10:25.804Z,9.2
2024-03-29T00:20:26.008Z,9.2
2024-03-29T00:30:26.222Z,9.3
2024-03-29T00:40:26.432Z,9.3
2024-03-29T00:50:26.634Z,9.2
2024-03-29T01:00:26.827Z,9.2
2024-03-29T01:20:27.227Z,9.2
2024-03-29T01:30:27.445Z,9.3
2024-03-29T01:40:27.639Z,9.3
2024-03-29T01:50:27.890Z,9.1
2024-03-29T02:00:28.055Z,9.2
2024-03-29T02:10:28.242Z,9.3
2024-03-29T02:20:33.649Z,9.3
2024-03-29T02:30:28.652Z,9.5
2024-03-29T03:30:29.880Z,10.4
2024-03-29T03:40:30.099Z,10.4
2024-03-29T03:50:30.277Z,10.4
2024-03-29T04:00:30.478Z,10.4
2024-03-29T04:10:30.781Z,10.2
2024-03-29T04:20:30.908Z,9.8
2024-03-29T04:30:31.174Z,9.6
2024-03-29T04:40:31.287Z,9.3
2024-03-29T05:10:32.017Z,8.2
2024-03-29T05:40:32.531Z,7.7
2024-03-29T05:50:32.741Z,7.6
2024-03-29T06:00:32.982Z,7.5
2024-03-29T06:10:33.224Z,7.5
2024-03-29T06:20:33.376Z,7.4
2024-03-29T06:30:33.615Z,7.4
2024-03-29T06:40:33.743Z,7.4
2024-03-29T06:50:33.931Z,7.4
2024-03-29T07:00:34.217Z,7.5
2024-03-29T07:10:34.336Z,7.6
2024-03-29T07:20:34.543Z,7.7
2024-03-29T07:30:38.387Z,7.9
2024-03-29T07:40:35.013Z,8.1
2024-03-29T07:50:35.439Z,8.2
2024-03-29T08:00:35.390Z,8.6
2024-03-29T08:10:35.566Z,9
2024-03-29T08:20:36.531Z,9.2
2024-03-29T08:30:35.995Z,9.4
2024-03-29T08:40:36.177Z,9.6
2024-03-29T08:50:36.383Z,9.7
2024-03-29T09:00:36.585Z,9.8
2024-03-29T09:10:36.809Z,9.8
2024-03-29T09:20:36.992Z,9.8
2024-03-29T09:30:37.428Z,9.8
2024-03-29T09:40:37.450Z,9.9
2024-03-29T09:50:37.595Z,10.3
2024-03-29T10:00:37.790Z,10.6
2024-03-29T10:10:38.035Z,10.7
2024-03-29T10:20:38.210Z,11
2024-03-29T10:30:38.428Z,11.5
2024-03-29T10:40:38.605Z,11.7
2024-03-29T10:50:38.801Z,11.7
2024-03-29T11:00:39.007Z,12
2024-03-29T11:10:39.230Z,12.1
2024-03-29T11:20:39.408Z,12.2
2024-03-29T11:30:39.615Z,12.8
2024-03-29T11:40:39.816Z,13.1
2024-03-29T11:50:40.055Z,13.4
2024-03-29T12:10:40.412Z,15
2024-03-29T12:20:40.608Z,14.9
2024-03-29T12:30:40.819Z,14.4
2024-03-29T12:40:41.010Z,14.1
2024-03-29T12:50:41.211Z,13.7
2024-03-29T13:00:41.409Z,13.5
2024-03-29T13:10:41.632Z,13.9
2024-03-29T13:20:41.814Z,14.5
2024-03-29T13:30:42.075Z,14.8
2024-03-29T13:40:42.219Z,15.4
2024-03-29T13:50:42.425Z,15.8
2024-03-29T14:00:42.620Z,16.2
2024-03-29T14:10:42.839Z,16.4
2024-03-29T14:20:43.025Z,16.1
2024-03-29T14:30:43.355Z,15
2024-03-29T14:40:43.470Z,14.8
2024-03-29T14:50:43.620Z,14.7
2024-03-29T15:00:43.826Z,14.7
2024-03-29T15:10:44.054Z,14.7
2024-03-29T15:20:44.224Z,15
2024-03-29T15:30:44.489Z,14.8
2024-03-29T15:50:44.866Z,14.7
2024-03-29T16:00:45.028Z,14.4
2024-03-29T16:10:45.224Z,14.3
2024-03-29T16:20:45.425Z,14.2
2024-03-29T16:30:45.632Z,14.2
2024-03-29T16:40:45.883Z,14.1
2024-03-29T17:00:46.249Z,14
2024-03-29T17:10:47.136Z,13.9
2024-03-29T17:20:46.635Z,13.7
2024-03-29T17:30:46.830Z,13.5
2024-03-29T17:40:47.027Z,13.5
2024-03-29T17:50:47.252Z,13.5
2024-03-29T18:00:47.463Z,13.5
2024-03-29T18:10:47.634Z,13.4
2024-03-29T18:20:47.839Z,13.3
2024-03-29T18:30:48.071Z,13.2
2024-03-29T18:40:48.239Z,13.1
2024-03-29T18:50:48.443Z,13.1
2024-03-29T19:00:48.648Z,13
2024-03-29T19:10:48.842Z,12.9
2024-03-29T19:20:49.038Z,12.8
2024-03-29T19:30:49.248Z,12.7
2024-03-29T19:50:49.657Z,12.4
2024-03-29T20:00:49.857Z,12.3
2024-03-29T20:10:50.050Z,12.2
2024-03-29T20:20:50.255Z,12.1
2024-03-29T20:40:50.682Z,12
2024-03-29T21:10:51.277Z,12
2024-03-29T21:20:51.466Z,12
2024-03-29T21:30:51.669Z,12
2024-03-29T21:40:51.896Z,11.9
2024-03-29T21:50:52.067Z,11.9
2024-03-29T22:00:52.264Z,11.8
2024-03-29T22:10:52.492Z,11.7
2024-03-29T22:20:52.691Z,11.6
2024-03-29T22:30:52.876Z,11.6
2024-03-29T22:40:53.090Z,11.6
2024-03-29T22:50:53.277Z,11.5
2024-03-29T23:00:53.485Z,11.4
2024-03-29T23:10:53.697Z,11.3
2024-03-29T23:20:53.888Z,11.1
2024-03-29T23:30:54.090Z,10.9
2024-03-29T23:40:54.284Z,10.8
